Terminal Aerodrome Forecast
Issued by NWS

Home | Current Version | Previous Version | Text Only | Print | Product List | Glossary On
Versions: 1 2 3 4 5 6 7 8 9 10 11 12 13 14 15 16 17 18 19 20 21 22 23 24 25 26 27 28 29 30
000
FTUS46 KPQR 240536
TAFONP
TAF
KONP 240536Z 2406/2506 VRB03KT P6SM SCT020 SCT050
     FM241000 15004KT P6SM -SHRA SCT030 BKN050
     FM241200 18006KT P6SM -SHRA SCT025 BKN035 BKN050
      TEMPO 2415/2419 3SM -SHRASN
     FM242200 15006KT P6SM -SHRAGS BKN025 OVC050=

USA.gov is the U.S. government's official web portal to all federal, state and local government web resources and services.